Latest Weather Observations for Nullarbor

IDS60801

Issued at 10:01 am CST Thursday 26 May 2016 (issued every 30 minutes, with the page automatically refreshed every 10 minutes)

About weather observations | Map of weather stations | Latest weather observations for SA | Other Formats
Station Details ID: 018106 Name: NULLARBOR Lat: -31.45 Lon: 130.90 Height: 64.0 m
Data from the previous 72 hours. | See also: Recent months at Nullarbor
Date/Time
CST
Temp
°C
App
Temp
°C
Dew
Point
Rel
Hum
%
Delta-T
°C
Wind Press
QNH
hPa
Press
MSL
hPa
Rain
since 9 am
mm
Dir
 
Spd
km/h
Gust
km/h
Spd
kts
Gust
kts
26/10:00am 12.1 10.3 12.1 100 0.0 WNW 13 17 7 9 1015.0 1014.9 0.0
26/09:30am 11.0 - - - - WNW 7 11 4 6 1014.5 1014.4 0.0
26/09:00am 10.1 8.5 10.1 100 0.0 NW 9 13 5 7 1014.1 1014.0 2.6
26/08:30am 9.5 7.3 9.5 100 0.0 NNW 11 13 6 7 1013.6 1013.5 2.6
26/08:00am 8.8 - - - - NNW 11 13 6 7 1013.8 1013.7 2.6
26/07:30am 7.5 4.8 7.5 100 0.0 NNW 11 11 6 6 1013.2 1013.1 2.6
26/07:15am 7.7 5.1 7.7 100 0.0 NW 11 13 6 7 1013.2 1013.1 2.6
26/07:00am 7.6 5.0 7.6 100 0.0 NW 11 13 6 7 1013.3 1013.2 2.6
26/06:30am 7.8 5.2 7.8 100 0.0 NW 11 15 6 8 1013.3 1013.2 2.4
26/06:18am 7.8 4.8 7.8 100 0.0 NW 13 15 7 8 1013.5 1013.4 2.4
26/06:00am 7.7 4.7 7.7 100 0.0 NW 13 15 7 8 1013.4 1013.3 2.4
26/05:58am 7.8 4.8 7.8 100 0.0 NNW 13 15 7 8 1013.4 1013.3 2.4
26/05:30am 7.6 5.0 7.6 100 0.0 NNW 11 13 6 7 1012.7 1012.6 2.4
26/05:17am 7.8 4.8 7.8 100 0.0 NNW 13 15 7 8 1012.5 1012.4 2.4
26/05:00am 8.1 5.2 8.1 100 0.0 NW 13 15 7 8 1012.8 1012.7 2.4
26/04:37am 8.2 5.3 8.2 100 0.0 NW 13 17 7 9 1012.6 1012.5 2.4
26/04:33am 8.1 4.8 8.1 100 0.0 NW 15 17 8 9 1012.8 1012.7 2.4
26/04:30am 7.9 4.6 7.9 100 0.0 NW 15 17 8 9 1013.0 1012.9 2.4
26/04:00am 8.1 5.6 8.1 100 0.0 NNW 11 15 6 8 1012.7 1012.6 2.4
26/03:30am 9.0 6.7 9.0 100 0.0 NW 11 15 6 8 1013.1 1013.0 2.4
26/03:00am 9.6 7.1 9.6 100 0.0 W 13 15 7 8 1013.1 1013.0 2.4
26/02:30am 9.4 7.2 9.4 100 0.0 WNW 11 13 6 7 1012.7 1012.6 2.4
26/02:00am 10.0 8.0 10.0 100 0.0 W 11 13 6 7 1012.8 1012.7 2.4
26/01:30am 9.5 7.3 9.5 100 0.0 NW 11 13 6 7 1012.8 1012.7 2.4
26/01:00am 9.8 8.1 9.8 100 0.0 NW 9 13 5 7 1013.1 1013.0 2.2
26/12:30am 10.2 8.2 10.2 100 0.0 NW 11 13 6 7 1013.3 1013.2 2.2
26/12:00am 10.5 8.6 10.5 100 0.0 NW 11 13 6 7 1013.5 1013.4 2.2
 
Date/Time
CST
Temp
°C
App
Temp
°C
Dew
Point
Rel
Hum
%
Delta-T
°C
Wind Press
QNH
hPa
Press
MSL
hPa
Rain
since 9 am
mm
Dir
 
Spd
km/h
Gust
km/h
Spd
kts
Gust
kts
25/11:30pm 10.8 9.0 10.8 100 0.0 NNW 11 13 6 7 1013.6 1013.5 2.2
25/11:00pm 11.0 9.6 11.0 100 0.0 NNW 9 11 5 6 1013.5 1013.4 2.2
25/10:30pm 11.8 10.7 11.8 100 0.0 WNW 9 11 5 6 1013.4 1013.3 2.2
25/10:00pm 12.8 12.0 12.8 100 0.0 WNW 9 11 5 6 1013.1 1013.0 2.2
25/09:30pm 13.1 12.0 13.1 100 0.0 WNW 11 13 6 7 1013.2 1013.1 2.2
25/09:00pm 13.4 12.8 13.4 100 0.0 WNW 9 11 5 6 1012.9 1012.8 2.2
25/08:30pm 13.6 12.6 13.4 99 0.1 WNW 11 13 6 7 1012.6 1012.5 2.2
25/08:00pm 14.3 14.3 14.1 99 0.1 W 7 11 4 6 1012.3 1012.2 2.2
25/07:30pm 14.6 14.3 14.4 99 0.1 W 9 15 5 8 1012.1 1012.0 2.2
25/07:00pm 14.7 13.7 14.5 99 0.1 WSW 13 20 7 11 1011.5 1011.4 2.2
25/06:30pm 14.9 14.3 14.7 99 0.1 WSW 11 15 6 8 1010.8 1010.7 2.2
25/06:00pm 15.0 13.7 14.8 99 0.1 WSW 15 20 8 11 1010.6 1010.5 2.2
25/05:30pm 15.0 13.3 14.8 99 0.1 WSW 17 24 9 13 1010.3 1010.2 2.2
25/05:13pm 14.8 12.5 14.6 99 0.1 SW 20 30 11 16 1010.2 1010.1 2.2
25/05:11pm 14.8 12.1 14.6 99 0.1 SW 22 30 12 16 1010.1 1010.0 2.2
25/05:00pm 14.7 10.8 14.5 99 0.1 SW 28 35 15 19 1009.9 1009.8 2.2
25/04:34pm 15.7 13.3 15.5 99 0.1 SW 22 28 12 15 1009.6 1009.5 1.6
25/04:30pm 15.7 13.0 15.5 99 0.1 SW 24 32 13 17 1009.5 1009.4 1.6
25/04:18pm 16.0 13.0 15.8 99 0.1 SW 26 32 14 17 1009.2 1009.1 1.6
25/04:00pm 16.8 12.8 15.2 90 0.9 WSW 30 37 16 20 1008.9 1008.8 1.4
25/03:30pm 19.4 15.6 15.7 79 2.2 WNW 30 39 16 21 1008.2 1008.1 1.4
25/03:00pm 19.1 16.6 16.1 83 1.8 NW 24 33 13 18 1008.0 1007.9 1.4
25/02:30pm 18.8 17.1 16.2 85 1.6 NW 20 28 11 15 1008.2 1008.1 1.4
25/02:00pm 18.1 16.4 17.1 94 0.6 NNW 22 32 12 17 1008.3 1008.2 1.4
25/01:30pm 18.0 14.8 16.3 90 1.0 N 28 35 15 19 1008.6 1008.5 1.2
25/01:00pm 18.3 15.1 16.3 88 1.2 NNW 28 35 15 19 1009.1 1009.0 1.2
25/12:30pm 17.9 15.8 16.2 90 1.0 NNW 22 30 12 16 1009.5 1009.4 1.2
25/12:00pm 17.9 16.9 16.6 92 0.8 NNW 17 22 9 12 1009.8 1009.7 1.2
25/11:30am 17.5 16.2 17.3 99 0.1 NNW 20 26 11 14 1010.2 1010.1 1.2
25/11:00am 16.9 15.6 16.9 100 0.0 N 19 24 10 13 1010.2 1010.1 1.2
25/10:30am 16.3 15.2 16.3 100 0.0 N 17 22 9 12 1010.3 1010.2 1.2
25/10:00am 15.8 15.6 15.8 100 0.0 NNW 11 15 6 8 1010.9 1010.8 1.2
25/09:30am 15.6 14.6 15.6 100 0.0 NNW 15 19 8 10 1011.6 1011.5 0.6
25/09:11am 15.5 14.5 15.5 100 0.0 NNW 15 19 8 10 1011.3 1011.2 0.4
25/09:00am 15.5 14.5 15.5 100 0.0 NW 15 19 8 10 1011.6 1011.5 2.2
25/08:56am 15.5 14.5 15.5 100 0.0 NW 15 19 8 10 1011.6 1011.5 2.2
25/08:30am 15.5 15.2 15.5 100 0.0 NW 11 13 6 7 1010.8 1010.7 1.6
25/08:00am 15.5 15.6 15.5 100 0.0 NNW 9 13 5 7 1010.3 1010.2 1.6
25/07:30am 15.3 14.6 15.3 100 0.0 N 13 17 7 9 1009.9 1009.8 1.6
25/07:00am 15.2 15.2 15.2 100 0.0 N 9 13 5 7 1009.9 1009.8 1.6
25/06:30am 15.5 16.2 15.5 100 0.0 N 6 9 3 5 1009.9 1009.8 1.6
25/06:00am 15.5 14.5 15.5 100 0.0 NE 15 19 8 10 1009.1 1009.0 1.6
25/05:30am 15.4 14.3 15.4 100 0.0 NNE 15 19 8 10 1009.6 1009.5 1.6
25/05:00am 15.3 14.9 15.3 100 0.0 NNE 11 15 6 8 1009.9 1009.8 1.6
25/04:30am 15.5 15.5 15.3 99 0.1 NNW 9 13 5 7 1010.4 1010.3 1.6
25/04:00am 15.5 15.5 15.3 99 0.1 E 9 11 5 6 1009.7 1009.6 1.6
25/03:30am 15.9 17.0 15.7 99 0.1 WNW 4 7 2 4 1010.6 1010.5 1.6
25/03:00am 16.4 16.7 16.1 98 0.2 SSW 9 13 5 7 1011.0 1010.9 1.6
25/02:30am 16.7 15.3 15.6 93 0.6 SW 17 20 9 11 1011.2 1011.1 1.4
25/02:00am 17.2 15.2 15.5 90 1.0 SSW 20 24 11 13 1011.2 1011.1 1.2
25/01:30am 17.1 15.3 14.4 84 1.6 WNW 17 19 9 10 1012.0 1011.9 0.8
25/01:00am 17.7 17.5 13.6 77 2.3 SW 7 13 4 7 1010.6 1010.5 0.8
25/12:30am 18.4 16.1 13.1 71 3.0 W 17 24 9 13 1010.5 1010.4 0.8
25/12:00am 18.1 15.4 13.0 72 2.9 NNW 19 24 10 13 1011.0 1010.9 0.6
 
Date/Time
CST
Temp
°C
App
Temp
°C
Dew
Point
Rel
Hum
%
Delta-T
°C
Wind Press
QNH
hPa
Press
MSL
hPa
Rain
since 9 am
mm
Dir
 
Spd
km/h
Gust
km/h
Spd
kts
Gust
kts
24/11:30pm 19.3 17.7 11.6 61 4.3 NW 11 17 6 9 1010.7 1010.6 0.4
24/11:00pm 20.1 16.7 10.5 54 5.2 NW 19 37 10 20 1010.3 1010.2 0.2
24/10:30pm 20.2 16.0 8.2 46 6.3 N 20 24 11 13 1010.0 1009.9 0.0
24/10:00pm 20.7 16.4 8.0 44 6.6 N 20 24 11 13 1010.3 1010.2 0.0
24/09:30pm 21.4 16.8 8.0 42 7.0 N 22 28 12 15 1010.3 1010.2 0.0
24/09:00pm 21.9 16.5 8.1 41 7.3 N 26 37 14 20 1010.3 1010.2 0.0
24/08:30pm 22.0 17.0 8.2 41 7.3 NNE 24 28 13 15 1010.4 1010.3 0.0
24/08:00pm 21.9 17.7 8.4 42 7.1 N 20 24 11 13 1010.3 1010.2 0.0
24/07:30pm 22.3 18.3 9.1 43 7.1 NNE 20 24 11 13 1010.1 1010.0 0.0
24/07:00pm 22.7 18.9 9.1 42 7.3 N 19 22 10 12 1010.1 1010.0 0.0
24/06:30pm 22.8 19.0 9.2 42 7.3 N 19 22 10 12 1009.8 1009.7 0.0
24/06:00pm 24.2 20.4 9.0 38 8.2 N 19 22 10 12 1009.7 1009.6 0.0
24/05:30pm 25.4 19.9 9.3 36 8.8 N 28 43 15 23 1009.7 1009.6 0.0
24/05:00pm 26.2 20.7 9.1 34 9.4 N 28 39 15 21 1009.7 1009.6 0.0
24/04:30pm 26.0 20.4 8.9 34 9.3 N 28 35 15 19 1009.8 1009.7 0.0
24/04:00pm 27.2 20.2 8.6 31 10.2 N 35 43 19 23 1010.2 1010.1 0.0
24/03:30pm 26.1 19.5 8.6 33 9.5 N 33 43 18 23 1010.3 1010.2 0.0
24/03:00pm 27.3 20.9 9.2 32 10.0 NNW 33 46 18 25 1010.6 1010.5 0.0
24/02:30pm 26.3 19.8 8.8 33 9.5 N 33 54 18 29 1011.1 1011.0 0.0
24/02:00pm 25.7 18.4 7.3 31 9.7 N 35 46 19 25 1011.8 1011.7 0.0
24/01:30pm 25.1 17.0 6.8 31 9.6 N 39 48 21 26 1012.5 1012.4 0.0
24/01:00pm 24.7 17.1 6.0 30 9.6 N 35 43 19 23 1013.1 1013.0 0.0
24/12:30pm 22.8 14.5 4.3 30 9.1 N 37 48 20 26 1014.0 1013.9 0.0
24/12:00pm 21.4 13.3 3.1 30 8.7 N 35 43 19 23 1014.8 1014.7 0.0
24/11:30am 20.6 12.6 3.8 33 8.1 N 35 44 19 24 1015.7 1015.6 0.0
24/11:00am 19.2 10.7 3.0 34 7.6 N 37 52 20 28 1016.1 1016.0 0.0
24/10:30am 18.0 9.8 2.7 36 7.0 N 35 46 19 25 1017.0 1017.0 0.0
24/10:00am 16.7 9.7 4.1 43 5.9 NNE 30 44 16 24 1017.1 1017.1 0.0
24/09:30am 13.8 7.1 3.9 51 4.5 NE 28 37 15 20 1017.5 1017.5 0.0
24/09:00am 11.8 5.4 3.3 56 3.8 NE 26 32 14 17 1018.2 1018.2 0.0
24/08:30am 10.3 4.3 3.1 61 3.1 NE 24 32 13 17 1018.3 1018.3 0.0
24/08:00am 8.3 2.5 2.3 66 2.5 NE 22 28 12 15 1018.3 1018.3 0.0
24/07:30am 7.6 1.7 1.9 67 2.3 NE 22 26 12 14 1018.3 1018.3 0.0
24/07:00am 7.4 1.9 1.7 67 2.3 NE 20 24 11 13 1018.5 1018.5 0.0
24/06:30am 6.9 1.3 1.2 67 2.3 NE 20 24 11 13 1018.5 1018.5 0.0
24/06:00am 6.4 0.8 0.9 68 2.2 NE 20 24 11 13 1018.6 1018.6 0.0
24/05:30am 5.5 0.0 0.5 70 1.9 NE 19 22 10 12 1018.7 1018.7 0.0
24/05:00am 4.2 -1.0 0.2 75 1.5 NE 17 19 9 10 1019.0 1019.0 0.0
24/04:30am 3.5 -1.4 -0.3 76 1.4 NE 15 17 8 9 1019.4 1019.4 0.0
24/04:00am 3.9 -0.6 -0.3 74 1.6 NE 13 15 7 8 1019.8 1019.8 0.0
24/03:30am 4.7 -0.2 -0.3 70 1.9 NE 15 17 8 9 1019.9 1019.9 0.0
24/03:00am 5.3 0.1 0.1 69 2.0 NE 17 17 9 9 1019.9 1019.9 0.0
24/02:30am 5.8 0.7 0.6 69 2.0 NE 17 19 9 10 1020.2 1020.2 0.0
24/02:00am 6.4 1.4 1.1 69 2.1 NE 17 19 9 10 1020.3 1020.3 0.0
24/01:30am 6.5 1.7 2.4 75 1.7 NE 17 19 9 10 1020.6 1020.6 0.0
24/01:00am 7.5 3.2 3.2 74 1.8 NE 15 19 8 10 1021.2 1021.2 0.0
24/12:30am 7.8 3.0 4.6 80 1.4 NE 19 20 10 11 1021.2 1021.2 0.0
24/12:00am 7.7 3.8 5.2 84 1.1 NE 15 17 8 9 1022.0 1022.0 0.0
 
Date/Time
CST
Temp
°C
App
Temp
°C
Dew
Point
Rel
Hum
%
Delta-T
°C
Wind Press
QNH
hPa
Press
MSL
hPa
Rain
since 9 am
mm
Dir
 
Spd
km/h
Gust
km/h
Spd
kts
Gust
kts
23/11:30pm 8.5 5.1 6.0 84 1.1 ENE 13 15 7 8 1022.0 1022.0 0.0
23/11:00pm 9.6 5.7 6.9 83 1.3 E 17 19 9 10 1021.6 1021.6 0.0
23/10:30pm 10.5 6.7 7.6 82 1.4 E 17 20 9 11 1022.1 1022.1 0.0
23/10:00pm 9.6 5.6 6.5 81 1.4 E 17 19 9 10 1022.4 1022.4 0.0
23/09:30pm 10.2 6.6 6.7 79 1.6 E 15 19 8 10 1022.9 1022.9 0.0
23/09:00pm 9.3 5.5 5.9 79 1.6 E 15 17 8 9 1023.1 1023.0 0.0
23/08:30pm 9.8 6.0 6.0 77 1.7 ENE 15 15 8 8 1023.1 1023.0 0.0
23/08:00pm 10.9 7.2 6.5 74 2.1 E 15 17 8 9 1023.1 1023.0 0.0
23/07:30pm 12.0 8.5 7.1 72 2.3 E 15 17 8 9 1022.9 1022.9 0.0
23/07:00pm 12.4 8.9 7.1 70 2.6 E 15 19 8 10 1022.8 1022.8 0.0
23/06:30pm 12.9 9.5 6.0 63 3.3 E 13 13 7 7 1022.7 1022.7 0.0
23/06:00pm 15.6 12.6 6.1 53 4.6 ESE 11 13 6 7 1022.7 1022.7 0.0
23/05:30pm 18.3 15.3 1.8 33 7.4 NE 7 9 4 5 1022.8 1022.8 0.0
23/05:00pm 19.6 16.1 1.1 29 8.3 NE 9 13 5 7 1022.9 1022.9 0.0
23/04:30pm 20.1 16.8 0.0 26 8.9 NNW 7 13 4 7 1022.8 1022.8 0.0
23/04:00pm 20.2 16.5 0.1 26 8.9 N 9 15 5 8 1022.9 1022.9 0.0
23/03:30pm 20.1 17.1 2.0 30 8.3 WNW 7 11 4 6 1022.8 1022.8 0.0
23/03:00pm 20.0 16.5 1.0 28 8.5 ENE 9 17 5 9 1023.2 1023.1 0.0
23/02:30pm 19.8 16.2 0.8 28 8.5 NNW 9 15 5 8 1023.5 1023.4 0.0
23/02:00pm 19.8 16.7 1.3 29 8.4 NNW 7 17 4 9 1024.0 1023.9 0.0
23/01:30pm 19.0 15.2 1.5 31 7.9 N 11 17 6 9 1024.3 1024.2 0.0
23/01:00pm 18.8 15.6 0.9 30 8.0 NNW 7 17 4 9 1024.9 1024.8 0.0
23/12:30pm 18.6 15.5 1.2 31 7.8 NNE 7 15 4 8 1025.4 1025.3 0.0
23/12:00pm 18.1 14.3 2.0 34 7.3 NNW 11 17 6 9 1026.0 1025.9 0.0
23/11:30am 17.4 13.5 1.4 34 7.1 NNW 11 17 6 9 1026.3 1026.2 0.0
23/11:00am 16.3 11.7 1.6 37 6.5 N 15 17 8 9 1026.4 1026.3 0.0
23/10:30am 15.2 11.1 2.4 42 5.7 N 13 19 7 10 1026.4 1026.3 0.0

Other Formats:

Comma delimited format used in spreadsheet applications
http://www.bom.gov.au/fwo/IDS60801/IDS60801.94651.axf

JavaScript Object Notation format (JSON) in row-major order
http://www.bom.gov.au/fwo/IDS60801/IDS60801.94651.json